createdAt,value
2022-11-04T00:02:13.303Z,19.50
2022-11-04T00:04:40.363Z,18.65
2022-11-04T00:07:27.178Z,19.77
2022-11-04T00:09:54.113Z,19.33
2022-11-04T00:12:27.236Z,17.33
2022-11-04T00:14:54.402Z,14.50
2022-11-04T00:17:24.387Z,13.60
2022-11-04T00:20:13.609Z,13.77
2022-11-04T00:23:00.655Z,13.55
2022-11-04T00:25:46.415Z,14.90
2022-11-04T00:31:19.810Z,12.35
2022-11-04T00:33:47.490Z,15.07
2022-11-04T00:36:14.603Z,14.68
2022-11-04T00:38:41.410Z,16.40
2022-11-04T00:41:26.457Z,16.70
2022-11-04T00:43:58.196Z,15.38
2022-11-04T00:46:25.619Z,17.77
2022-11-04T00:48:52.774Z,14.85
2022-11-04T00:51:21.537Z,13.73
2022-11-04T00:53:49.141Z,14.98
2022-11-04T00:56:16.010Z,14.60
2022-11-04T00:58:42.898Z,15.38
2022-11-04T01:01:11.360Z,16.77
2022-11-04T01:03:38.468Z,16.63
2022-11-04T01:06:05.864Z,16.42
2022-11-04T01:08:32.726Z,15.68
2022-11-04T01:11:04.646Z,16.10
2022-11-04T01:13:32.732Z,16.23
2022-11-04T01:16:01.165Z,17.63
2022-11-04T01:18:28.447Z,16.67
2022-11-04T01:20:55.356Z,18.35
2022-11-04T01:23:22.287Z,18.52
2022-11-04T01:25:49.321Z,17.48
2022-11-04T01:28:16.273Z,17.17
2022-11-04T01:30:43.104Z,13.15
2022-11-04T01:33:09.935Z,14.57
2022-11-04T01:35:36.807Z,16.70
2022-11-04T01:38:03.888Z,14.52
2022-11-04T01:40:30.801Z,15.48
2022-11-04T01:42:57.636Z,15.70
2022-11-04T01:45:24.589Z,16.85
2022-11-04T01:48:01.591Z,16.17
2022-11-04T01:50:32.216Z,16.88
2022-11-04T01:53:02.683Z,15.77
2022-11-04T01:55:33.939Z,18.05
2022-11-04T01:58:14.389Z,13.98
2022-11-04T02:00:42.957Z,17.55
2022-11-04T02:03:18.432Z,19.67
2022-11-04T02:05:46.874Z,22.08
2022-11-04T02:08:15.439Z,19.48
2022-11-04T02:10:50.849Z,19.40
2022-11-04T02:13:18.258Z,18.77
2022-11-04T02:15:45.055Z,19.35
2022-11-04T02:19:06.174Z,19.50
2022-11-04T02:22:06.447Z,17.40
2022-11-04T02:25:17.106Z,15.50
2022-11-04T02:28:07.955Z,19.55
2022-11-04T02:31:01.225Z,16.55
2022-11-04T02:33:42.163Z,15.13
2022-11-04T02:36:20.887Z,13.38
2022-11-04T02:39:06.244Z,20.48
2022-11-04T02:44:25.549Z,18.70
2022-11-04T02:47:08.640Z,17.70
2022-11-04T02:49:41.281Z,18.77
2022-11-04T02:52:14.954Z,19.83
2022-11-04T02:54:48.197Z,18.35
2022-11-04T02:57:24.632Z,19.50
2022-11-04T03:00:01.623Z,20.98
2022-11-04T03:02:54.346Z,20.25
2022-11-04T03:05:29.252Z,23.83
2022-11-04T03:08:01.133Z,25.25
2022-11-04T03:10:36.299Z,24.38
2022-11-04T03:13:11.669Z,18.60
2022-11-04T03:18:22.745Z,17.65
2022-11-04T03:20:51.673Z,23.13
2022-11-04T03:23:19.339Z,17.02
2022-11-04T03:25:50.333Z,17.30
2022-11-04T03:28:32.755Z,16.65
2022-11-04T03:31:03.383Z,19.55
2022-11-04T03:33:36.089Z,19.70
2022-11-04T03:36:04.484Z,18.75
2022-11-04T03:38:31.517Z,23.35
2022-11-04T03:41:01.472Z,21.80
2022-11-04T03:43:30.814Z,23.88
2022-11-04T03:45:58.208Z,24.70
2022-11-04T03:48:25.776Z,21.35
2022-11-04T03:50:52.888Z,18.75
2022-11-04T03:53:24.176Z,18.40
2022-11-04T03:56:13.248Z,18.25
2022-11-04T03:58:45.744Z,18.42
2022-11-04T04:01:44.669Z,18.55
2022-11-04T04:04:43.640Z,16.40
2022-11-04T04:07:16.793Z,15.10
2022-11-04T04:09:50.111Z,16.38
2022-11-04T04:12:27.614Z,17.55
2022-11-04T04:15:07.550Z,18.90
2022-11-04T04:17:59.183Z,22.15
2022-11-04T04:20:29.533Z,21.92
2022-11-04T04:23:02.247Z,20.90
2022-11-04T04:25:50.580Z,20.75
2022-11-04T04:28:19.777Z,19.27
2022-11-04T04:30:47.140Z,16.15
2022-11-04T04:33:17.738Z,16.25
2022-11-04T04:35:53.140Z,14.45
2022-11-04T04:38:40.638Z,18.80
2022-11-04T04:41:37.352Z,15.57
2022-11-04T04:44:42.916Z,19.85
2022-11-04T04:47:13.677Z,19.97
2022-11-04T04:49:58.301Z,23.63
2022-11-04T04:52:28.167Z,22.83
2022-11-04T04:54:55.165Z,19.40
2022-11-04T04:57:22.250Z,17.55
2022-11-04T04:59:49.073Z,18.73
2022-11-04T05:02:16.342Z,18.58
2022-11-04T05:04:43.400Z,16.83
2022-11-04T05:07:10.317Z,15.80
2022-11-04T05:09:37.470Z,15.10
2022-11-04T05:12:04.470Z,14.45
2022-11-04T05:14:31.468Z,11.45
2022-11-04T05:16:58.399Z,11.30
2022-11-04T05:19:25.277Z,11.70
2022-11-04T05:21:52.257Z,12.73
2022-11-04T05:24:19.192Z,10.75
2022-11-04T05:26:46.130Z,10.20
2022-11-04T05:31:44.915Z,10.93
2022-11-04T05:34:13.183Z,12.18
2022-11-04T05:36:40.351Z,10.07
2022-11-04T05:39:07.451Z,11.38
2022-11-04T05:41:35.160Z,12.20
2022-11-04T05:44:04.598Z,12.38
2022-11-04T05:46:31.744Z,11.20
2022-11-04T05:48:58.732Z,10.85
2022-11-04T05:51:27.715Z,10.95
2022-11-04T05:53:54.976Z,9.57
2022-11-04T05:56:22.018Z,11.75
2022-11-04T05:58:49.014Z,9.80
2022-11-04T06:01:27.187Z,10.02
2022-11-04T06:03:54.746Z,9.10
2022-11-04T06:06:23.333Z,9.15
2022-11-04T06:08:51.599Z,8.98
2022-11-04T06:11:19.162Z,10.98
2022-11-04T06:13:46.040Z,10.48
2022-11-04T06:16:12.902Z,9.77
2022-11-04T06:18:39.825Z,8.95
2022-11-04T06:21:15.588Z,9.93
2022-11-04T06:23:43.492Z,10.95
2022-11-04T06:26:12.017Z,11.63
2022-11-04T06:28:39.259Z,12.52
2022-11-04T06:31:08.759Z,12.00
2022-11-04T06:33:37.029Z,9.75
2022-11-04T06:36:06.756Z,11.43
2022-11-04T06:38:35.486Z,11.48
2022-11-04T06:41:02.455Z,11.60
2022-11-04T06:43:29.518Z,10.48
2022-11-04T06:45:58.571Z,10.77
2022-11-04T06:48:26.182Z,10.77
2022-11-04T06:50:53.322Z,11.65
2022-11-04T06:53:20.213Z,9.57
2022-11-04T06:55:47.192Z,11.63
2022-11-04T06:58:14.066Z,10.63
2022-11-04T07:00:40.984Z,9.63
2022-11-04T07:03:09.969Z,10.57
2022-11-04T07:05:37.265Z,10.75
2022-11-04T07:08:04.352Z,10.60
2022-11-04T07:10:31.211Z,9.77
2022-11-04T07:12:58.055Z,8.98
2022-11-04T07:15:27.649Z,9.32
2022-11-04T07:17:54.636Z,9.90
2022-11-04T07:20:21.526Z,8.75
2022-11-04T07:22:48.409Z,9.63
2022-11-04T07:25:15.467Z,7.35
2022-11-04T07:27:42.408Z,9.40
2022-11-04T07:30:11.105Z,7.55
2022-11-04T07:32:37.954Z,7.65
2022-11-04T07:35:05.127Z,8.38
2022-11-04T07:37:31.975Z,8.02
2022-11-04T07:39:58.850Z,7.95
2022-11-04T07:42:25.726Z,6.95
2022-11-04T07:44:55.484Z,6.80
2022-11-04T07:47:22.441Z,7.25
2022-11-04T07:49:49.403Z,7.45
2022-11-04T07:52:16.298Z,5.95
2022-11-04T07:54:43.200Z,6.57
2022-11-04T07:57:10.070Z,5.43
2022-11-04T07:59:36.941Z,5.43
2022-11-04T08:02:04.219Z,6.78
2022-11-04T08:04:31.272Z,5.72
2022-11-04T08:06:58.133Z,7.60
2022-11-04T08:09:25.182Z,6.63
2022-11-04T08:11:52.274Z,7.82
2022-11-04T08:14:19.156Z,7.88
2022-11-04T08:16:46.296Z,9.63
2022-11-04T08:19:13.959Z,6.85
2022-11-04T08:21:40.870Z,6.15
2022-11-04T08:24:07.810Z,5.53
2022-11-04T08:26:35.080Z,5.13
2022-11-04T08:29:02.607Z,5.07
2022-11-04T08:31:31.729Z,5.20
2022-11-04T08:33:58.650Z,5.05
2022-11-04T08:36:32.970Z,4.35
2022-11-04T08:39:03.246Z,5.00
2022-11-04T08:41:34.661Z,5.30
2022-11-04T08:44:04.236Z,4.43
2022-11-04T08:46:37.719Z,4.88
2022-11-04T08:49:09.928Z,4.20
2022-11-04T08:51:41.608Z,5.45
2022-11-04T08:54:08.830Z,3.30
2022-11-04T08:56:37.990Z,3.92
2022-11-04T08:59:05.537Z,4.72
2022-11-04T09:01:36.003Z,3.33
2022-11-04T09:04:04.173Z,3.60
2022-11-04T09:06:40.899Z,4.00
2022-11-04T09:09:11.008Z,4.50
2022-11-04T09:11:41.301Z,4.90
2022-11-04T09:14:10.575Z,4.00
2022-11-04T09:16:39.063Z,4.72
2022-11-04T09:19:06.466Z,4.88
2022-11-04T09:21:33.651Z,3.75
2022-11-04T09:24:00.617Z,4.57
2022-11-04T09:26:28.304Z,3.75
2022-11-04T09:28:56.736Z,3.55
2022-11-04T09:31:25.199Z,4.38
2022-11-04T09:33:52.084Z,4.28
2022-11-04T09:36:19.099Z,3.20
2022-11-04T09:38:45.946Z,3.33
2022-11-04T09:41:49.116Z,3.90
2022-11-04T09:45:07.366Z,5.00
2022-11-04T09:47:34.839Z,5.32
2022-11-04T09:50:06.542Z,3.70
2022-11-04T09:52:41.892Z,4.13
2022-11-04T09:55:30.680Z,3.47
2022-11-04T09:57:58.822Z,4.13
2022-11-04T10:00:26.171Z,5.82
2022-11-04T10:03:04.998Z,4.97
2022-11-04T10:06:02.182Z,4.28
2022-11-04T10:08:37.918Z,4.70
2022-11-04T10:11:47.533Z,4.88
2022-11-04T10:14:37.393Z,4.18
2022-11-04T10:17:21.369Z,6.28
2022-11-04T10:20:00.036Z,5.13
2022-11-04T10:22:45.572Z,4.30
2022-11-04T10:25:22.321Z,4.93
2022-11-04T10:27:51.298Z,5.43
2022-11-04T10:30:23.767Z,3.67
2022-11-04T10:33:03.358Z,5.68
2022-11-04T10:36:00.227Z,5.85
2022-11-04T10:38:38.573Z,5.03
2022-11-04T10:41:35.611Z,4.32
2022-11-04T10:44:20.451Z,5.72
2022-11-04T10:47:04.784Z,7.10
2022-11-04T10:52:46.003Z,5.93
2022-11-04T10:55:38.756Z,5.80
2022-11-04T10:58:17.309Z,4.53
2022-11-04T11:00:44.522Z,5.65
2022-11-04T11:03:31.681Z,5.20
2022-11-04T11:06:14.679Z,4.30
2022-11-04T11:08:42.941Z,4.50
2022-11-04T11:11:11.217Z,4.88
2022-11-04T11:13:41.365Z,6.30
2022-11-04T11:16:28.888Z,6.78
2022-11-04T11:19:15.936Z,6.43
2022-11-04T11:21:49.218Z,4.45
2022-11-04T11:24:23.602Z,6.57
2022-11-04T11:26:56.708Z,4.88
2022-11-04T11:29:40.483Z,6.45
2022-11-04T11:32:43.548Z,4.70
2022-11-04T11:35:17.951Z,5.78
2022-11-04T11:37:48.773Z,5.47
2022-11-04T11:40:32.202Z,6.07
2022-11-04T11:43:02.728Z,5.45
2022-11-04T11:45:30.123Z,5.57
2022-11-04T11:47:57.102Z,5.90
2022-11-04T11:50:32.721Z,5.38
2022-11-04T11:53:35.617Z,6.22
2022-11-04T11:56:40.411Z,5.15
2022-11-04T12:02:36.363Z,6.95
2022-11-04T12:11:20.900Z,10.05
2022-11-04T12:13:57.472Z,5.50
2022-11-04T12:16:34.412Z,6.60
2022-11-04T12:19:32.207Z,6.03
2022-11-04T12:22:34.475Z,7.65
2022-11-04T12:25:10.180Z,5.93
2022-11-04T12:27:47.608Z,5.68
2022-11-04T12:30:21.240Z,5.72
2022-11-04T12:33:05.089Z,6.32
2022-11-04T12:36:17.162Z,6.68
2022-11-04T12:39:20.088Z,6.43
2022-11-04T12:42:32.837Z,6.03
2022-11-04T12:45:26.037Z,8.32
2022-11-04T12:48:00.419Z,7.00
2022-11-04T12:50:50.583Z,7.88
2022-11-04T12:53:26.416Z,6.28
2022-11-04T12:56:14.888Z,5.30
2022-11-04T12:58:56.613Z,7.22
2022-11-04T13:01:41.087Z,7.28
2022-11-04T13:04:17.106Z,7.70
2022-11-04T13:06:54.029Z,6.75
2022-11-04T13:09:38.912Z,5.80
2022-11-04T13:12:14.114Z,6.18
2022-11-04T13:15:05.392Z,6.25
2022-11-04T13:17:40.153Z,5.88
2022-11-04T13:20:15.613Z,5.68
2022-11-04T13:22:51.949Z,6.78
2022-11-04T13:25:33.703Z,5.82
2022-11-04T13:28:02.451Z,7.65
2022-11-04T13:30:41.125Z,8.40
2022-11-04T13:33:35.885Z,7.13
2022-11-04T13:36:30.721Z,6.93
2022-11-04T13:39:04.800Z,6.10
2022-11-04T13:41:58.730Z,8.10
2022-11-04T13:44:29.075Z,5.80
2022-11-04T13:47:01.606Z,7.70
2022-11-04T13:49:33.956Z,6.65
2022-11-04T13:52:11.531Z,7.03
2022-11-04T13:54:38.915Z,6.03
2022-11-04T13:57:10.780Z,7.05
2022-11-04T13:59:37.961Z,5.78
2022-11-04T14:02:19.919Z,7.30
2022-11-04T14:04:47.457Z,7.38
2022-11-04T14:07:18.112Z,7.38
2022-11-04T14:09:45.048Z,8.55
2022-11-04T14:12:13.504Z,7.95
2022-11-04T14:14:48.041Z,8.90
2022-11-04T14:17:32.973Z,8.05
2022-11-04T14:20:19.495Z,8.50
2022-11-04T14:22:53.011Z,8.80
2022-11-04T14:25:58.723Z,10.18
2022-11-04T14:28:28.636Z,10.30
2022-11-04T14:31:04.654Z,9.13
2022-11-04T14:33:42.642Z,10.30
2022-11-04T14:36:21.759Z,9.90
2022-11-04T14:38:56.796Z,10.45
2022-11-04T14:41:40.161Z,9.57
2022-11-04T14:44:18.392Z,12.38
2022-11-04T14:46:47.838Z,10.85
2022-11-04T14:49:39.949Z,9.95
2022-11-04T14:52:14.545Z,11.32
2022-11-04T14:54:41.853Z,12.15
2022-11-04T14:57:23.079Z,10.38
2022-11-04T14:59:52.370Z,10.55
2022-11-04T15:02:23.636Z,10.57
2022-11-04T15:05:00.307Z,11.88
2022-11-04T15:07:39.535Z,11.32
2022-11-04T15:10:28.059Z,12.50
2022-11-04T15:13:00.900Z,10.40
2022-11-04T15:15:31.671Z,13.15
2022-11-04T15:18:27.138Z,9.85
2022-11-04T15:20:58.215Z,10.65
2022-11-04T15:23:29.126Z,10.55
2022-11-04T15:25:57.946Z,10.07
2022-11-04T15:28:28.813Z,10.48
2022-11-04T15:31:07.856Z,9.82
2022-11-04T15:33:40.767Z,10.00
2022-11-04T15:36:14.130Z,9.85
2022-11-04T15:38:47.275Z,9.38
2022-11-04T15:41:38.304Z,8.98
2022-11-04T15:44:14.824Z,9.00
2022-11-04T15:46:48.513Z,9.32
2022-11-04T15:49:27.289Z,8.82
2022-11-04T15:52:06.264Z,9.57
2022-11-04T15:54:39.633Z,9.35
2022-11-04T15:57:18.843Z,9.85
2022-11-04T16:00:07.671Z,10.38
2022-11-04T16:02:55.344Z,8.43
2022-11-04T16:05:40.056Z,8.70
2022-11-04T16:08:22.268Z,8.90
2022-11-04T16:10:50.176Z,9.25
2022-11-04T16:13:17.096Z,10.15
2022-11-04T16:15:49.479Z,8.80
2022-11-04T16:18:29.794Z,8.77
2022-11-04T16:20:57.846Z,10.43
2022-11-04T16:23:28.317Z,8.57
2022-11-04T16:26:01.467Z,8.48
2022-11-04T16:28:31.600Z,9.55
2022-11-04T16:31:21.420Z,9.65
2022-11-04T16:33:49.428Z,10.38
2022-11-04T16:36:30.903Z,8.85
2022-11-04T16:39:09.083Z,8.95
2022-11-04T16:41:38.836Z,10.65
2022-11-04T16:44:15.747Z,9.88
2022-11-04T16:46:42.712Z,9.57
2022-11-04T16:49:14.464Z,9.15
2022-11-04T16:51:41.522Z,9.32
2022-11-04T16:54:08.977Z,8.80
2022-11-04T16:56:36.140Z,9.52
2022-11-04T16:59:03.084Z,8.55
2022-11-04T17:01:30.222Z,9.60
2022-11-04T17:03:57.252Z,9.73
2022-11-04T17:06:24.366Z,8.90
2022-11-04T17:08:51.397Z,10.00
2022-11-04T17:11:18.408Z,10.02
2022-11-04T17:13:45.236Z,9.90
2022-11-04T17:16:14.057Z,9.90
2022-11-04T17:18:41.435Z,9.50
2022-11-04T17:21:13.345Z,8.82
2022-11-04T17:23:40.316Z,8.85
2022-11-04T17:26:07.262Z,9.15
2022-11-04T17:28:34.182Z,9.43
2022-11-04T17:31:02.715Z,9.90
2022-11-04T17:33:29.974Z,9.50
2022-11-04T17:35:57.037Z,9.18
2022-11-04T17:38:23.880Z,8.95
2022-11-04T17:41:09.433Z,8.93
2022-11-04T17:46:41.808Z,8.80
2022-11-04T17:49:13.558Z,8.85
2022-11-04T17:51:43.084Z,9.25
2022-11-04T17:54:10.828Z,8.77
2022-11-04T17:56:38.303Z,9.35
2022-11-04T17:59:05.206Z,9.68
2022-11-04T18:01:33.701Z,10.07
2022-11-04T18:04:00.876Z,8.75
2022-11-04T18:06:30.706Z,8.05
2022-11-04T18:08:59.274Z,9.25
2022-11-04T18:11:47.021Z,9.45
2022-11-04T18:14:16.905Z,10.10
2022-11-04T18:16:46.484Z,8.95
2022-11-04T18:19:14.436Z,9.65
2022-11-04T18:21:41.547Z,9.52
2022-11-04T18:24:09.737Z,10.57
2022-11-04T18:26:37.009Z,7.75
2022-11-04T18:29:05.792Z,9.30
2022-11-04T18:31:35.713Z,9.85
2022-11-04T18:34:07.753Z,9.63
2022-11-04T18:36:35.191Z,8.77
2022-11-04T18:39:02.211Z,9.07
2022-11-04T18:41:30.122Z,7.60
2022-11-04T18:43:57.383Z,10.20
2022-11-04T18:46:24.274Z,9.93
2022-11-04T18:48:51.872Z,7.95
2022-11-04T18:51:22.203Z,10.10
2022-11-04T18:53:50.604Z,8.45
2022-11-04T18:56:22.841Z,8.73
2022-11-04T18:58:50.167Z,9.88
2022-11-04T19:01:22.037Z,9.95
2022-11-04T19:03:50.074Z,10.35
2022-11-04T19:06:20.160Z,8.82
2022-11-04T19:08:47.815Z,9.82
2022-11-04T19:11:19.448Z,10.38
2022-11-04T19:13:58.871Z,10.63
2022-11-04T19:16:26.535Z,9.60
2022-11-04T19:18:54.945Z,9.10
2022-11-04T19:21:24.933Z,9.07
2022-11-04T19:23:51.873Z,10.95
2022-11-04T19:26:22.635Z,10.60
2022-11-04T19:28:50.391Z,11.30
2022-11-04T19:31:23.433Z,10.50
2022-11-04T19:33:50.817Z,10.60
2022-11-04T19:36:22.370Z,11.05
2022-11-04T19:38:53.172Z,9.95
2022-11-04T19:41:39.724Z,10.25
2022-11-04T19:44:12.092Z,11.25
2022-11-04T19:46:39.864Z,11.25
2022-11-04T19:49:07.641Z,12.43
2022-11-04T19:51:35.802Z,10.60
2022-11-04T19:54:03.510Z,11.30
2022-11-04T19:56:33.554Z,11.18
2022-11-04T19:59:05.834Z,11.27
2022-11-04T20:01:35.017Z,12.07
2022-11-04T20:04:03.636Z,10.40
2022-11-04T20:06:33.297Z,12.23
2022-11-04T20:09:06.051Z,11.25
2022-11-04T20:11:34.756Z,13.88
2022-11-04T20:14:07.576Z,13.18
2022-11-04T20:16:39.658Z,12.75
2022-11-04T20:19:07.037Z,13.90
2022-11-04T20:21:36.528Z,13.43
2022-11-04T20:24:08.994Z,15.27
2022-11-04T20:26:37.289Z,17.45
2022-11-04T20:29:05.895Z,14.45
2022-11-04T20:31:35.297Z,15.10
2022-11-04T20:34:05.161Z,16.15
2022-11-04T20:36:32.295Z,16.52
2022-11-04T20:39:00.899Z,18.02
2022-11-04T20:41:27.892Z,20.33
2022-11-04T20:43:58.589Z,18.83
2022-11-04T20:46:30.260Z,21.02
2022-11-04T20:48:58.478Z,21.52
2022-11-04T20:51:31.585Z,21.42
2022-11-04T20:54:01.417Z,24.65
2022-11-04T20:56:31.472Z,23.98
2022-11-04T20:59:00.133Z,21.60
2022-11-04T21:01:35.843Z,22.08
2022-11-04T21:04:07.428Z,22.23
2022-11-04T21:06:37.749Z,23.90
2022-11-04T21:09:11.323Z,23.10
2022-11-04T21:11:39.770Z,22.40
2022-11-04T21:14:08.520Z,25.67
2022-11-04T21:16:36.012Z,21.75
2022-11-04T21:19:04.351Z,23.77
2022-11-04T21:21:32.658Z,23.63
2022-11-04T21:24:02.923Z,21.25
2022-11-04T21:26:32.976Z,20.83
2022-11-04T21:29:02.672Z,22.25
2022-11-04T21:31:31.612Z,21.25
2022-11-04T21:33:58.961Z,21.02
2022-11-04T21:36:25.848Z,19.92
2022-11-04T21:38:52.823Z,21.30
2022-11-04T21:41:24.555Z,22.08
2022-11-04T21:43:59.137Z,23.48
2022-11-04T21:46:27.384Z,25.27
2022-11-04T21:48:55.642Z,24.05
2022-11-04T21:51:25.557Z,22.73
2022-11-04T21:53:52.712Z,24.83
2022-11-04T21:56:22.219Z,23.05
2022-11-04T21:58:49.260Z,24.00
2022-11-04T22:01:19.298Z,24.45
2022-11-04T22:03:51.295Z,26.55
2022-11-04T22:06:18.629Z,25.98
2022-11-04T22:08:54.293Z,26.42
2022-11-04T22:11:25.629Z,30.35
2022-11-04T22:14:00.445Z,29.45
2022-11-04T22:16:29.505Z,27.98
2022-11-04T22:18:58.806Z,29.38
2022-11-04T22:21:27.544Z,29.23
2022-11-04T22:23:55.541Z,26.42
2022-11-04T22:26:25.593Z,29.85
2022-11-04T22:28:53.774Z,27.10
2022-11-04T22:31:36.669Z,29.48
2022-11-04T22:34:04.929Z,28.75
2022-11-04T22:36:33.328Z,28.17
2022-11-04T22:39:00.528Z,27.85
2022-11-04T22:41:30.354Z,28.42
2022-11-04T22:43:57.734Z,28.65
2022-11-04T22:46:28.435Z,27.58
2022-11-04T22:48:55.638Z,32.28
2022-11-04T22:51:22.581Z,32.22
2022-11-04T22:53:57.891Z,32.65
2022-11-04T22:56:26.055Z,28.98
2022-11-04T22:58:54.296Z,31.95
2022-11-04T23:01:21.941Z,31.95
2022-11-04T23:03:52.080Z,29.67
2022-11-04T23:06:19.892Z,32.05
2022-11-04T23:08:46.945Z,34.13
2022-11-04T23:11:36.186Z,31.60
2022-11-04T23:14:21.750Z,30.35
2022-11-04T23:19:38.407Z,30.77
2022-11-04T23:22:24.420Z,33.22
2022-11-04T23:25:06.497Z,29.42
2022-11-04T23:27:57.740Z,28.23
2022-11-04T23:30:26.114Z,26.92
2022-11-04T23:32:57.359Z,28.48
2022-11-04T23:35:53.958Z,28.55
2022-11-04T23:38:21.190Z,30.40
2022-11-04T23:41:09.270Z,26.92
2022-11-04T23:43:36.496Z,27.52
2022-11-04T23:46:22.206Z,29.42
2022-11-04T23:49:07.755Z,27.95
2022-11-04T23:54:38.912Z,28.55
2022-11-04T23:57:34.209Z,29.40
